Time;durP1;ratioP1;P1;durP2;ratioP2;P2;SDS_P1;SDS_P2;PMS_P1;PMS_P2;Temp;Humidity;BMP_temperature;BMP_pressure;BME280_temperature;BME280_humidity;BME280_pressure;Samples;Min_cycle;Max_cycle;Signal;HPM_P1;HPM_P2
2024/01/01 00:00:47;;;;;;;39.33;21.00;;;;;;;;;;5025100;28;20034;-56
2024/01/01 00:03:13;;;;;;;37.67;19.20;;;;;;;;;;5025243;28;20029;-56
2024/01/01 00:05:38;;;;;;;36.22;19.27;;;;;;;;;;5055220;28;20037;-53
2024/01/01 00:08:03;;;;;;;40.33;18.40;;;;;;;;;;5030475;28;20029;-53
2024/01/01 00:12:55;;;;;;;29.88;16.25;;;;;;;;;;5048381;28;20774;-53
2024/01/01 00:15:20;;;;;;;32.72;16.98;;;;;;;;;;5036380;28;20049;-56
2024/01/01 00:17:46;;;;;;;25.83;15.27;;;;;;;;;;5034260;28;20024;-56
2024/01/01 00:20:11;;;;;;;31.20;16.55;;;;;;;;;;5068476;28;20496;-55
2024/01/01 00:22:37;;;;;;;30.40;15.40;;;;;;;;;;5038423;28;20466;-55
2024/01/01 00:25:02;;;;;;;27.27;14.77;;;;;;;;;;5042292;28;20480;-56
2024/01/01 00:27:27;;;;;;;28.33;14.60;;;;;;;;;;5035106;28;20028;-57
2024/01/01 00:29:53;;;;;;;26.88;15.00;;;;;;;;;;5037776;28;20036;-55
2024/01/01 00:32:18;;;;;;;27.33;14.77;;;;;;;;;;5034692;28;20102;-55
2024/01/01 00:34:44;;;;;;;28.20;15.10;;;;;;;;;;5035039;28;20059;-54
2024/01/01 00:37:10;;;;;;;28.98;14.40;;;;;;;;;;5039502;28;20022;-56
2024/01/01 00:39:35;;;;;;;26.23;14.63;;;;;;;;;;5042698;28;20031;-55
2024/01/01 00:42:00;;;;;;;28.13;14.85;;;;;;;;;;5033485;28;20033;-55
2024/01/01 00:44:26;;;;;;;27.13;14.55;;;;;;;;;;5035238;28;20526;-57
2024/01/01 00:46:51;;;;;;;25.63;15.18;;;;;;;;;;5044623;28;20036;-57
2024/01/01 00:49:17;;;;;;;31.65;15.20;;;;;;;;;;5036357;28;20052;-56
2024/01/01 00:51:42;;;;;;;26.98;15.30;;;;;;;;;;5035567;28;20519;-52
2024/01/01 00:54:07;;;;;;;32.88;15.30;;;;;;;;;;5035903;28;20371;-56
2024/01/01 00:56:33;;;;;;;27.08;14.32;;;;;;;;;;5034113;28;20040;-50
2024/01/01 00:58:58;;;;;;;27.88;14.55;;;;;;;;;;5035923;28;20028;-56
2024/01/01 01:01:23;;;;;;;28.55;14.95;;;;;;;;;;5035639;28;20665;-52
2024/01/01 01:03:48;;;;;;;33.97;15.98;;;;;;;;;;5034812;28;20024;-58
2024/01/01 01:06:14;;;;;;;31.02;14.90;;;;;;;;;;5034371;28;20618;-55
2024/01/01 01:08:39;;;;;;;25.80;14.68;;;;;;;;;;5032807;28;20790;-56
2024/01/01 01:11:04;;;;;;;29.65;15.88;;;;;;;;;;5036050;28;20088;-55
2024/01/01 01:13:29;;;;;;;31.48;15.52;;;;;;;;;;5035184;28;20524;-53
2024/01/01 01:15:55;;;;;;;33.38;15.65;;;;;;;;;;5033812;28;20039;-56
2024/01/01 01:18:20;;;;;;;33.47;15.43;;;;;;;;;;5034884;28;20526;-54
2024/01/01 01:20:45;;;;;;;27.05;14.93;;;;;;;;;;5036441;28;20297;-56
2024/01/01 01:23:11;;;;;;;28.10;15.68;;;;;;;;;;5033177;28;20037;-55
2024/01/01 01:25:36;;;;;;;32.42;16.15;;;;;;;;;;5021206;28;20139;-57
2024/01/01 01:28:02;;;;;;;28.27;15.27;;;;;;;;;;5019595;28;20417;-54
2024/01/01 01:30:28;;;;;;;29.83;15.55;;;;;;;;;;5023948;28;20325;-55
2024/01/01 01:32:53;;;;;;;26.70;13.65;;;;;;;;;;5019383;28;20792;-57
2024/01/01 01:35:18;;;;;;;28.63;15.10;;;;;;;;;;5021736;28;20654;-55
2024/01/01 01:37:44;;;;;;;26.60;15.00;;;;;;;;;;5019486;28;20024;-56
2024/01/01 01:40:09;;;;;;;27.77;15.43;;;;;;;;;;5019621;28;20025;-55
2024/01/01 01:42:35;;;;;;;24.55;14.52;;;;;;;;;;5019599;28;20025;-56
2024/01/01 01:45:00;;;;;;;27.63;15.43;;;;;;;;;;5022957;28;22664;-53
2024/01/01 01:47:26;;;;;;;28.77;14.90;;;;;;;;;;5024553;28;20079;-57
2024/01/01 01:49:51;;;;;;;31.65;15.35;;;;;;;;;;5021811;28;20040;-55
2024/01/01 01:52:17;;;;;;;32.65;15.18;;;;;;;;;;5019713;28;20156;-56
2024/01/01 01:54:43;;;;;;;28.50;15.55;;;;;;;;;;5021122;28;20041;-54
2024/01/01 01:57:09;;;;;;;33.33;16.33;;;;;;;;;;5019603;28;20451;-57
2024/01/01 01:59:34;;;;;;;23.48;14.27;;;;;;;;;;5021283;28;20375;-54
2024/01/01 02:02:00;;;;;;;29.70;16.25;;;;;;;;;;5021475;28;20416;-54
2024/01/01 02:04:25;;;;;;;28.13;13.68;;;;;;;;;;5020300;28;20025;-54
2024/01/01 02:06:50;;;;;;;26.65;14.32;;;;;;;;;;5022076;28;20457;-54
2024/01/01 02:09:16;;;;;;;29.75;15.07;;;;;;;;;;5020209;28;20465;-57
2024/01/01 02:11:41;;;;;;;30.60;14.98;;;;;;;;;;5017361;28;20426;-52
2024/01/01 02:14:16;;;;;;;26.88;14.38;;;;;;;;;;5021990;28;20509;-55
2024/01/01 02:16:41;;;;;;;27.58;15.10;;;;;;;;;;5019542;28;20699;-54
2024/01/01 02:19:12;;;;;;;26.65;14.25;;;;;;;;;;5019687;28;20075;-55
2024/01/01 02:21:37;;;;;;;24.83;14.00;;;;;;;;;;5019133;28;20163;-56
2024/01/01 02:24:03;;;;;;;29.08;14.45;;;;;;;;;;5019529;28;20488;-56
2024/01/01 02:26:28;;;;;;;32.10;15.93;;;;;;;;;;5026437;28;20044;-55
2024/01/01 02:28:53;;;;;;;23.90;13.75;;;;;;;;;;5021238;28;20511;-56
2024/01/01 02:31:19;;;;;;;26.77;13.45;;;;;;;;;;5019609;28;20493;-56
2024/01/01 02:33:44;;;;;;;27.38;14.60;;;;;;;;;;5019707;28;20563;-56
2024/01/01 02:36:09;;;;;;;28.73;14.57;;;;;;;;;;5020434;28;20391;-53
2024/01/01 02:38:34;;;;;;;29.92;14.02;;;;;;;;;;5018262;28;20021;-57
2024/01/01 02:41:00;;;;;;;33.08;14.02;;;;;;;;;;5024265;28;20053;-57
2024/01/01 02:43:26;;;;;;;29.85;14.00;;;;;;;;;;5019768;28;20428;-56
2024/01/01 02:45:51;;;;;;;26.20;13.40;;;;;;;;;;5026342;28;20475;-56
2024/01/01 02:48:16;;;;;;;24.08;13.50;;;;;;;;;;5039479;28;20060;-54
2024/01/01 02:50:41;;;;;;;26.73;13.82;;;;;;;;;;5041836;28;20040;-54
2024/01/01 02:53:06;;;;;;;27.73;14.80;;;;;;;;;;5040334;28;20424;-56
2024/01/01 02:55:32;;;;;;;26.40;13.45;;;;;;;;;;5041204;28;20133;-55
2024/01/01 02:57:57;;;;;;;26.67;13.25;;;;;;;;;;5038311;28;20063;-56
2024/01/01 03:00:23;;;;;;;23.70;12.90;;;;;;;;;;5041786;28;20503;-55
2024/01/01 03:02:49;;;;;;;28.27;13.52;;;;;;;;;;5038892;28;20040;-52
2024/01/01 03:05:14;;;;;;;26.60;13.90;;;;;;;;;;5039460;28;20573;-56
2024/01/01 03:07:39;;;;;;;28.20;14.68;;;;;;;;;;5022189;28;20128;-53
2024/01/01 03:10:05;;;;;;;30.15;14.05;;;;;;;;;;5040576;28;20040;-55
2024/01/01 03:12:30;;;;;;;26.67;15.18;;;;;;;;;;5038689;28;20061;-54
2024/01/01 03:14:55;;;;;;;25.83;14.25;;;;;;;;;;5040092;28;20776;-56
2024/01/01 03:17:20;;;;;;;29.08;14.55;;;;;;;;;;5039275;28;20032;-55
2024/01/01 03:19:46;;;;;;;31.75;15.10;;;;;;;;;;5025385;28;20329;-56
2024/01/01 03:22:11;;;;;;;27.25;14.70;;;;;;;;;;5027846;28;20132;-56
2024/01/01 03:24:36;;;;;;;28.80;16.30;;;;;;;;;;5019361;28;20029;-55
2024/01/01 03:27:02;;;;;;;27.23;14.90;;;;;;;;;;5016900;28;20027;-53
2024/01/01 03:29:27;;;;;;;30.98;15.18;;;;;;;;;;5021591;28;21277;-56
2024/01/01 03:31:52;;;;;;;30.13;15.60;;;;;;;;;;5019594;28;20041;-56
2024/01/01 03:34:18;;;;;;;30.30;17.33;;;;;;;;;;5019966;28;20031;-55
2024/01/01 03:36:44;;;;;;;32.80;15.90;;;;;;;;;;5018093;28;20021;-56
2024/01/01 03:39:09;;;;;;;32.40;16.77;;;;;;;;;;5019156;28;20709;-56
2024/01/01 03:41:34;;;;;;;34.67;17.02;;;;;;;;;;5018382;28;20029;-54
2024/01/01 03:44:00;;;;;;;33.83;17.98;;;;;;;;;;5018817;28;20033;-56
2024/01/01 03:46:25;;;;;;;35.40;16.70;;;;;;;;;;5021078;28;20032;-53
2024/01/01 03:48:50;;;;;;;28.25;15.85;;;;;;;;;;5018987;28;20172;-53
2024/01/01 03:51:15;;;;;;;31.35;16.83;;;;;;;;;;5019792;28;20597;-56
2024/01/01 03:53:41;;;;;;;35.47;19.13;;;;;;;;;;5017978;28;20051;-54
2024/01/01 03:56:06;;;;;;;32.55;18.08;;;;;;;;;;5019773;28;20072;-55
2024/01/01 03:58:31;;;;;;;34.38;18.60;;;;;;;;;;5019108;28;20028;-56
2024/01/01 04:00:57;;;;;;;33.78;19.15;;;;;;;;;;5019232;28;20044;-56
2024/01/01 04:03:22;;;;;;;33.20;18.20;;;;;;;;;;5019068;28;20040;-54
2024/01/01 04:05:48;;;;;;;44.30;21.67;;;;;;;;;;5021975;28;20029;-55
2024/01/01 04:08:13;;;;;;;40.03;20.73;;;;;;;;;;5017063;28;20021;-55
2024/01/01 04:10:38;;;;;;;38.90;21.45;;;;;;;;;;5020472;28;20054;-53
2024/01/01 04:13:03;;;;;;;40.65;19.88;;;;;;;;;;5017860;28;20102;-52
2024/01/01 04:15:29;;;;;;;37.92;21.40;;;;;;;;;;5018496;28;20048;-54
2024/01/01 04:17:54;;;;;;;38.45;20.33;;;;;;;;;;5017755;28;20048;-54
2024/01/01 04:20:19;;;;;;;41.75;21.95;;;;;;;;;;5019229;28;20017;-56
2024/01/01 04:22:45;;;;;;;46.85;23.48;;;;;;;;;;5017810;28;20036;-56
2024/01/01 04:25:11;;;;;;;46.13;22.52;;;;;;;;;;5017684;28;20393;-55
2024/01/01 04:27:36;;;;;;;38.70;21.60;;;;;;;;;;5021570;28;20029;-57
2024/01/01 04:30:04;;;;;;;41.15;21.65;;;;;;;;;;5026863;28;20043;-52
2024/01/01 04:32:29;;;;;;;46.15;22.30;;;;;;;;;;5016535;28;20037;-55
2024/01/01 04:34:55;;;;;;;45.83;23.38;;;;;;;;;;5030669;28;20044;-54
2024/01/01 04:37:20;;;;;;;45.50;21.45;;;;;;;;;;5025202;28;20032;-55
2024/01/01 04:39:45;;;;;;;45.53;23.08;;;;;;;;;;5019244;28;20025;-54
2024/01/01 04:42:11;;;;;;;48.22;22.92;;;;;;;;;;5017252;28;20075;-55
2024/01/01 04:44:36;;;;;;;42.63;22.63;;;;;;;;;;5024085;28;20832;-52
2024/01/01 04:47:02;;;;;;;45.17;22.48;;;;;;;;;;5019155;28;20032;-54
2024/01/01 04:49:27;;;;;;;38.53;22.52;;;;;;;;;;5017945;28;20024;-56
2024/01/01 04:51:53;;;;;;;41.40;22.90;;;;;;;;;;5016966;28;20774;-55
2024/01/01 04:54:18;;;;;;;43.65;23.50;;;;;;;;;;5019174;28;20045;-54
2024/01/01 04:56:43;;;;;;;40.83;23.60;;;;;;;;;;5017813;28;20229;-56
2024/01/01 04:59:09;;;;;;;42.50;22.20;;;;;;;;;;5022286;28;20033;-56
2024/01/01 05:01:34;;;;;;;40.20;21.73;;;;;;;;;;5020403;28;20414;-53
2024/01/01 05:03:59;;;;;;;48.72;23.90;;;;;;;;;;5022924;28;20029;-52
2024/01/01 05:06:24;;;;;;;40.47;21.92;;;;;;;;;;5022131;28;20493;-54
2024/01/01 05:08:50;;;;;;;41.28;22.67;;;;;;;;;;5021371;28;20491;-55
2024/01/01 05:11:15;;;;;;;41.15;22.65;;;;;;;;;;5020160;28;20057;-55
2024/01/01 05:13:41;;;;;;;40.15;22.30;;;;;;;;;;5020920;28;20195;-52
2024/01/01 05:16:12;;;;;;;42.97;23.95;;;;;;;;;;5022508;28;20032;-55
2024/01/01 05:18:37;;;;;;;40.80;23.17;;;;;;;;;;5020234;28;20040;-53
2024/01/01 05:21:03;;;;;;;39.50;21.80;;;;;;;;;;5022795;28;20025;-52
2024/01/01 05:23:29;;;;;;;44.58;23.70;;;;;;;;;;5019692;28;21685;-55
2024/01/01 05:25:54;;;;;;;41.45;22.77;;;;;;;;;;5021342;28;20036;-55
2024/01/01 05:28:19;;;;;;;44.30;24.17;;;;;;;;;;5037006;28;20378;-54
2024/01/01 05:30:45;;;;;;;45.40;23.67;;;;;;;;;;5021732;28;20134;-53
2024/01/01 05:33:10;;;;;;;46.35;24.85;;;;;;;;;;5020297;28;20033;-54
2024/01/01 05:35:36;;;;;;;46.10;24.15;;;;;;;;;;5024224;28;20499;-56
2024/01/01 05:38:02;;;;;;;45.05;24.20;;;;;;;;;;5034263;28;20075;-50
2024/01/01 05:40:27;;;;;;;45.47;24.55;;;;;;;;;;5021667;28;20025;-53
2024/01/01 05:42:52;;;;;;;45.28;24.25;;;;;;;;;;5023065;28;20045;-52
2024/01/01 05:45:18;;;;;;;46.15;25.60;;;;;;;;;;5024159;28;20025;-55
2024/01/01 05:47:43;;;;;;;43.65;23.65;;;;;;;;;;5021438;28;20029;-52
2024/01/01 05:50:09;;;;;;;48.45;24.77;;;;;;;;;;5023507;28;20083;-53
2024/01/01 05:52:34;;;;;;;50.22;26.52;;;;;;;;;;5024679;28;20040;-53
2024/01/01 05:54:59;;;;;;;45.03;24.35;;;;;;;;;;5020499;28;20064;-55
2024/01/01 05:57:24;;;;;;;45.03;23.08;;;;;;;;;;5021890;28;20374;-54
2024/01/01 05:59:50;;;;;;;45.75;22.20;;;;;;;;;;5022865;28;20033;-53
2024/01/01 06:02:15;;;;;;;37.80;21.23;;;;;;;;;;5020079;28;20082;-51
2024/01/01 06:04:40;;;;;;;34.10;19.05;;;;;;;;;;5025603;28;20387;-55
2024/01/01 06:07:05;;;;;;;35.28;19.70;;;;;;;;;;5020007;28;20025;-53
2024/01/01 06:09:31;;;;;;;36.70;20.90;;;;;;;;;;5020948;28;20029;-53
2024/01/01 06:11:56;;;;;;;39.45;20.23;;;;;;;;;;5017953;28;20784;-53
2024/01/01 06:14:21;;;;;;;36.72;19.42;;;;;;;;;;5021661;28;20043;-53
2024/01/01 06:16:47;;;;;;;30.80;19.15;;;;;;;;;;5019791;28;20056;-53
2024/01/01 06:19:12;;;;;;;35.40;18.00;;;;;;;;;;5022641;28;20021;-52
2024/01/01 06:21:38;;;;;;;36.95;20.08;;;;;;;;;;5021250;28;20033;-52
2024/01/01 06:24:03;;;;;;;35.08;18.85;;;;;;;;;;5023204;28;20016;-56
2024/01/01 06:26:28;;;;;;;30.77;18.33;;;;;;;;;;5019426;28;20409;-53
2024/01/01 06:28:54;;;;;;;38.47;19.52;;;;;;;;;;5020406;28;20085;-54
2024/01/01 06:31:19;;;;;;;36.83;20.58;;;;;;;;;;5019211;28;20040;-51
2024/01/01 06:33:44;;;;;;;37.58;19.30;;;;;;;;;;5021189;28;20092;-54
2024/01/01 06:36:10;;;;;;;41.90;20.65;;;;;;;;;;5023798;28;20124;-54
2024/01/01 06:38:36;;;;;;;38.53;19.42;;;;;;;;;;5019492;28;20126;-51
2024/01/01 06:41:01;;;;;;;36.42;19.88;;;;;;;;;;5020794;28;20032;-54
2024/01/01 06:43:27;;;;;;;45.05;20.80;;;;;;;;;;5017953;28;20039;-53
2024/01/01 06:45:52;;;;;;;35.83;19.90;;;;;;;;;;5025404;28;20126;-56
2024/01/01 06:48:17;;;;;;;38.65;21.05;;;;;;;;;;5017162;28;20336;-55
2024/01/01 06:50:43;;;;;;;40.55;21.48;;;;;;;;;;5020654;28;20033;-55
2024/01/01 06:53:08;;;;;;;40.25;21.25;;;;;;;;;;5018467;28;20029;-51
2024/01/01 06:55:34;;;;;;;36.42;20.45;;;;;;;;;;5019399;28;20420;-54
2024/01/01 06:57:59;;;;;;;36.75;19.98;;;;;;;;;;5018571;28;20021;-50
2024/01/01 07:00:24;;;;;;;36.15;19.83;;;;;;;;;;5020494;28;20121;-53
2024/01/01 07:02:50;;;;;;;33.33;19.02;;;;;;;;;;5020681;28;20092;-55
2024/01/01 07:05:15;;;;;;;36.63;20.63;;;;;;;;;;5019147;28;20028;-55
2024/01/01 07:07:40;;;;;;;41.75;20.60;;;;;;;;;;5021810;28;20063;-55
2024/01/01 07:10:06;;;;;;;33.00;18.65;;;;;;;;;;5020829;28;20036;-51
2024/01/01 07:12:31;;;;;;;36.67;19.27;;;;;;;;;;5017634;28;20056;-53
2024/01/01 07:14:56;;;;;;;34.50;18.83;;;;;;;;;;5021234;28;20071;-54
2024/01/01 07:17:22;;;;;;;38.88;20.05;;;;;;;;;;5018971;28;20373;-56
2024/01/01 07:19:47;;;;;;;52.22;24.23;;;;;;;;;;5019046;28;20397;-56
2024/01/01 07:22:13;;;;;;;64.65;28.13;;;;;;;;;;5019202;28;20076;-55
2024/01/01 07:24:38;;;;;;;44.53;22.52;;;;;;;;;;5027587;28;20032;-54
2024/01/01 07:27:04;;;;;;;42.85;22.20;;;;;;;;;;5017788;28;20045;-55
2024/01/01 07:29:30;;;;;;;33.10;19.80;;;;;;;;;;5021252;28;20455;-56
2024/01/01 07:31:56;;;;;;;38.55;19.50;;;;;;;;;;5018413;28;20043;-53
2024/01/01 07:34:21;;;;;;;31.17;17.85;;;;;;;;;;5019429;28;20120;-53
2024/01/01 07:36:46;;;;;;;34.70;18.83;;;;;;;;;;5018612;28;20156;-54
2024/01/01 07:39:12;;;;;;;34.78;18.52;;;;;;;;;;5019400;28;20346;-54
2024/01/01 07:41:38;;;;;;;31.50;17.30;;;;;;;;;;5018901;28;20064;-53
2024/01/01 07:44:03;;;;;;;33.63;17.63;;;;;;;;;;5028941;28;20469;-53
2024/01/01 07:46:28;;;;;;;32.03;16.85;;;;;;;;;;5023934;28;20069;-56
2024/01/01 07:48:55;;;;;;;31.85;17.27;;;;;;;;;;5020410;28;20025;-56
2024/01/01 07:51:20;;;;;;;33.17;17.05;;;;;;;;;;5021632;28;20509;-56
2024/01/01 07:53:45;;;;;;;33.05;17.80;;;;;;;;;;5018096;28;20083;-55
2024/01/01 07:56:11;;;;;;;32.00;15.82;;;;;;;;;;5019080;28;20029;-57
2024/01/01 07:58:36;;;;;;;39.63;17.92;;;;;;;;;;5019129;28;20099;-57
2024/01/01 08:01:01;;;;;;;38.17;18.15;;;;;;;;;;5021258;28;20265;-53
2024/01/01 08:03:27;;;;;;;33.70;16.45;;;;;;;;;;5017798;28;20022;-55
2024/01/01 08:05:52;;;;;;;35.20;17.00;;;;;;;;;;5022754;28;20441;-54
2024/01/01 08:08:17;;;;;;;31.80;17.65;;;;;;;;;;5017494;28;20017;-56
2024/01/01 08:10:45;;;;;;;32.67;17.10;;;;;;;;;;5019135;28;20050;-55
2024/01/01 08:13:11;;;;;;;35.33;17.95;;;;;;;;;;5019285;28;20045;-52
2024/01/01 08:15:36;;;;;;;33.80;17.20;;;;;;;;;;5017947;28;20502;-54
2024/01/01 08:18:02;;;;;;;33.53;17.00;;;;;;;;;;5019735;28;20450;-57
2024/01/01 08:20:29;;;;;;;33.28;16.67;;;;;;;;;;5021814;28;20021;-56
2024/01/01 08:22:54;;;;;;;30.10;15.73;;;;;;;;;;5020950;28;20029;-56
2024/01/01 08:25:19;;;;;;;30.33;15.52;;;;;;;;;;5016407;28;20508;-56
2024/01/01 08:27:44;;;;;;;30.23;15.98;;;;;;;;;;5019488;28;20033;-55
2024/01/01 08:30:10;;;;;;;29.08;15.02;;;;;;;;;;5020085;28;20705;-56
2024/01/01 08:32:35;;;;;;;28.23;15.00;;;;;;;;;;5018522;28;20076;-52
2024/01/01 08:35:01;;;;;;;20.42;11.82;;;;;;;;;;5021970;28;22950;-54
2024/01/01 08:37:26;;;;;;;23.02;12.23;;;;;;;;;;5020886;28;20036;-54
2024/01/01 08:39:51;;;;;;;24.48;11.88;;;;;;;;;;5023218;28;20090;-51
2024/01/01 08:42:16;;;;;;;28.98;13.23;;;;;;;;;;5020800;28;20040;-57
2024/01/01 08:44:42;;;;;;;23.85;12.15;;;;;;;;;;5024026;28;20056;-53
2024/01/01 08:47:07;;;;;;;19.13;11.13;;;;;;;;;;5027844;28;20466;-53
2024/01/01 08:49:32;;;;;;;22.10;9.75;;;;;;;;;;5022552;28;20056;-53
2024/01/01 08:51:58;;;;;;;21.13;10.35;;;;;;;;;;5023881;28;20496;-56
2024/01/01 08:54:23;;;;;;;23.42;9.98;;;;;;;;;;5025261;28;20036;-51
2024/01/01 08:56:48;;;;;;;17.98;9.00;;;;;;;;;;5040191;28;20820;-54
2024/01/01 08:59:15;;;;;;;16.67;9.10;;;;;;;;;;5040903;28;20148;-53
2024/01/01 09:01:47;;;;;;;20.02;9.23;;;;;;;;;;5022486;28;20116;-54
2024/01/01 09:04:13;;;;;;;21.48;9.50;;;;;;;;;;5020742;28;20033;-49
2024/01/01 09:06:38;;;;;;;14.35;9.00;;;;;;;;;;5023530;28;20743;-56
2024/01/01 09:09:03;;;;;;;15.20;8.68;;;;;;;;;;5023323;28;20085;-54
2024/01/01 09:11:29;;;;;;;16.42;9.15;;;;;;;;;;5021405;28;20574;-55
2024/01/01 09:13:54;;;;;;;17.15;9.60;;;;;;;;;;5024119;28;20053;-57
2024/01/01 09:16:19;;;;;;;17.25;8.60;;;;;;;;;;5020488;28;20416;-55
2024/01/01 09:18:44;;;;;;;18.25;9.55;;;;;;;;;;5021768;28;22138;-55
2024/01/01 09:21:14;;;;;;;14.90;8.88;;;;;;;;;;5028913;28;20486;-57
2024/01/01 09:23:40;;;;;;;15.75;7.82;;;;;;;;;;5024008;28;20445;-54
2024/01/01 09:26:05;;;;;;;13.90;8.10;;;;;;;;;;5023176;28;20021;-53
2024/01/01 09:28:31;;;;;;;17.40;8.70;;;;;;;;;;5026516;28;20016;-55
2024/01/01 09:30:57;;;;;;;14.23;7.65;;;;;;;;;;5025462;28;20033;-54
2024/01/01 09:33:22;;;;;;;14.20;7.68;;;;;;;;;;5027657;28;20021;-53
2024/01/01 09:35:47;;;;;;;14.30;6.75;;;;;;;;;;5026259;28;21045;-54
2024/01/01 09:38:12;;;;;;;13.48;7.28;;;;;;;;;;5024663;28;20120;-54
2024/01/01 09:40:38;;;;;;;13.30;6.35;;;;;;;;;;5023450;28;20021;-53
2024/01/01 09:43:03;;;;;;;13.60;6.78;;;;;;;;;;5023651;28;20642;-57
2024/01/01 09:45:29;;;;;;;12.45;7.35;;;;;;;;;;5026167;28;20111;-56
2024/01/01 09:47:54;;;;;;;12.82;6.65;;;;;;;;;;5025058;28;20406;-52
2024/01/01 09:50:20;;;;;;;13.48;6.60;;;;;;;;;;5030652;28;20036;-57
2024/01/01 09:52:45;;;;;;;11.18;5.70;;;;;;;;;;5030827;28;20036;-56
2024/01/01 09:55:10;;;;;;;10.70;5.80;;;;;;;;;;5033365;28;20397;-56
2024/01/01 09:57:35;;;;;;;11.77;5.43;;;;;;;;;;5027240;28;20431;-57
2024/01/01 10:00:05;;;;;;;10.13;5.05;;;;;;;;;;5032006;28;20521;-57
2024/01/01 10:02:30;;;;;;;8.43;4.50;;;;;;;;;;5026267;28;20033;-54
2024/01/01 10:05:15;;;;;;;9.40;4.75;;;;;;;;;;5029544;28;20028;-56
2024/01/01 10:07:40;;;;;;;8.13;4.80;;;;;;;;;;5031561;28;20033;-52
2024/01/01 10:10:06;;;;;;;9.68;4.68;;;;;;;;;;5032443;28;20024;-54
2024/01/01 10:12:34;;;;;;;9.45;4.93;;;;;;;;;;5027484;28;20454;-55
2024/01/01 10:15:00;;;;;;;5.97;3.33;;;;;;;;;;5030761;28;20387;-56
2024/01/01 10:17:25;;;;;;;3.95;2.75;;;;;;;;;;5029550;28;20033;-56
2024/01/01 10:19:51;;;;;;;3.90;2.28;;;;;;;;;;5032491;28;20132;-56
2024/01/01 10:22:18;;;;;;;3.83;2.70;;;;;;;;;;5033555;28;20044;-59
2024/01/01 10:24:44;;;;;;;3.35;2.22;;;;;;;;;;5030294;28;20030;-53
2024/01/01 10:27:10;;;;;;;3.63;2.25;;;;;;;;;;5022879;28;20509;-56
2024/01/01 10:29:35;;;;;;;4.30;2.25;;;;;;;;;;5033740;28;20144;-56
2024/01/01 10:32:01;;;;;;;2.72;1.83;;;;;;;;;;5030381;28;20056;-56
2024/01/01 10:34:26;;;;;;;3.78;1.83;;;;;;;;;;5029196;28;20017;-56
2024/01/01 10:36:52;;;;;;;6.28;2.70;;;;;;;;;;5031970;28;20021;-57
2024/01/01 10:39:17;;;;;;;3.50;2.17;;;;;;;;;;5034661;28;20071;-57
2024/01/01 10:41:43;;;;;;;3.40;1.70;;;;;;;;;;5030970;28;20659;-57
2024/01/01 10:44:09;;;;;;;2.92;1.73;;;;;;;;;;5032797;28;20034;-55
2024/01/01 10:46:39;;;;;;;4.45;1.70;;;;;;;;;;5031670;28;20097;-57
2024/01/01 10:49:05;;;;;;;3.90;1.95;;;;;;;;;;5026751;28;20363;-54
2024/01/01 10:51:41;;;;;;;3.35;1.60;;;;;;;;;;5031941;28;20076;-56
2024/01/01 10:54:25;;;;;;;2.95;1.60;;;;;;;;;;5026541;28;20025;-55
2024/01/01 10:56:53;;;;;;;2.40;1.58;;;;;;;;;;5030225;28;20086;-56
2024/01/01 10:59:20;;;;;;;4.18;2.00;;;;;;;;;;5029783;28;20032;-56
2024/01/01 11:01:46;;;;;;;4.63;1.65;;;;;;;;;;5029153;28;20123;-55
2024/01/01 11:04:15;;;;;;;3.35;1.85;;;;;;;;;;5020937;28;20032;-56
2024/01/01 11:06:44;;;;;;;7.17;2.37;;;;;;;;;;5018971;28;20400;-56
2024/01/01 11:09:19;;;;;;;3.28;2.03;;;;;;;;;;5022257;28;20516;-55
2024/01/01 11:11:47;;;;;;;3.20;1.65;;;;;;;;;;5020099;28;20045;-55
2024/01/01 11:14:22;;;;;;;5.93;2.13;;;;;;;;;;5022623;28;20049;-53
2024/01/01 11:16:49;;;;;;;2.33;1.67;;;;;;;;;;5020070;28;20024;-56
2024/01/01 11:19:34;;;;;;;4.53;1.75;;;;;;;;;;5019202;28;20021;-56
2024/01/01 11:22:19;;;;;;;3.40;1.73;;;;;;;;;;5019576;28;20040;-57
2024/01/01 11:24:45;;;;;;;5.53;2.00;;;;;;;;;;5018611;28;20083;-54
2024/01/01 11:27:23;;;;;;;3.60;1.65;;;;;;;;;;5017330;28;20490;-57
2024/01/01 11:29:49;;;;;;;3.85;1.80;;;;;;;;;;5026799;28;20466;-56
2024/01/01 11:32:17;;;;;;;2.28;1.60;;;;;;;;;;5018967;28;20107;-57
2024/01/01 11:34:42;;;;;;;4.47;1.38;;;;;;;;;;5019392;28;20041;-55
2024/01/01 11:37:07;;;;;;;3.03;1.60;;;;;;;;;;5051795;28;20654;-55
2024/01/01 11:39:32;;;;;;;3.03;1.50;;;;;;;;;;5020226;28;20036;-56
2024/01/01 11:41:58;;;;;;;6.15;1.73;;;;;;;;;;5018136;28;20029;-56
2024/01/01 11:44:25;;;;;;;5.43;1.38;;;;;;;;;;5019686;28;20110;-55
2024/01/01 11:46:51;;;;;;;2.65;1.35;;;;;;;;;;5023515;28;20082;-54
2024/01/01 11:49:17;;;;;;;4.20;1.83;;;;;;;;;;5034132;28;20036;-57
2024/01/01 11:51:51;;;;;;;5.25;2.30;;;;;;;;;;5018786;28;20115;-54
2024/01/01 11:54:17;;;;;;;3.63;1.85;;;;;;;;;;5018444;28;20029;-54
2024/01/01 11:56:45;;;;;;;7.00;2.08;;;;;;;;;;5018281;28;20065;-56
2024/01/01 11:59:11;;;;;;;4.60;2.42;;;;;;;;;;5019094;28;20021;-56
2024/01/01 12:01:37;;;;;;;5.35;2.33;;;;;;;;;;5016913;28;20033;-57
2024/01/01 12:04:05;;;;;;;6.10;3.83;;;;;;;;;;5020153;28;20021;-52
2024/01/01 12:06:30;;;;;;;5.38;2.90;;;;;;;;;;5018233;28;20029;-52
2024/01/01 12:09:09;;;;;;;8.20;2.90;;;;;;;;;;5019230;28;20401;-56
2024/01/01 12:11:35;;;;;;;4.70;2.35;;;;;;;;;;5016722;28;21606;-56
2024/01/01 12:14:01;;;;;;;4.50;2.53;;;;;;;;;;5050596;28;20036;-54
2024/01/01 12:16:27;;;;;;;6.50;2.53;;;;;;;;;;5017379;28;20763;-56
2024/01/01 12:19:00;;;;;;;6.03;2.90;;;;;;;;;;5018583;28;20060;-53
2024/01/01 12:21:35;;;;;;;6.57;2.50;;;;;;;;;;5018289;28;20033;-57
2024/01/01 12:24:02;;;;;;;6.00;3.03;;;;;;;;;;5017500;28;20032;-52
2024/01/01 12:26:28;;;;;;;6.13;2.25;;;;;;;;;;5017282;28;20553;-56
2024/01/01 12:29:09;;;;;;;6.23;2.47;;;;;;;;;;5021242;28;20059;-53
2024/01/01 12:31:35;;;;;;;5.47;2.20;;;;;;;;;;5017039;28;20289;-57
2024/01/01 12:34:00;;;;;;;4.30;2.40;;;;;;;;;;5020843;28;20386;-56
2024/01/01 12:36:26;;;;;;;6.40;2.70;;;;;;;;;;5022652;28;20021;-53
2024/01/01 12:38:51;;;;;;;5.53;2.70;;;;;;;;;;5017249;28;20058;-57
2024/01/01 12:41:18;;;;;;;5.30;2.60;;;;;;;;;;5019055;28;20123;-54
2024/01/01 12:43:43;;;;;;;6.85;2.80;;;;;;;;;;5017147;28;20021;-51
2024/01/01 12:46:09;;;;;;;8.35;2.22;;;;;;;;;;5023717;28;20036;-57
2024/01/01 12:48:34;;;;;;;4.93;2.30;;;;;;;;;;5018187;28;20029;-53
2024/01/01 12:51:00;;;;;;;11.10;3.30;;;;;;;;;;5018883;28;20028;-55
2024/01/01 12:53:25;;;;;;;10.45;2.97;;;;;;;;;;5017552;28;20079;-53
2024/01/01 12:55:50;;;;;;;11.40;2.80;;;;;;;;;;5018550;28;20033;-56
2024/01/01 12:58:16;;;;;;;6.87;3.27;;;;;;;;;;5016174;28;20025;-56
2024/01/01 13:00:41;;;;;;;8.27;3.42;;;;;;;;;;5020489;28;20841;-55
2024/01/01 13:03:06;;;;;;;8.35;2.92;;;;;;;;;;5018921;28;20523;-56
2024/01/01 13:05:31;;;;;;;6.47;2.50;;;;;;;;;;5017865;28;20568;-55
2024/01/01 13:07:57;;;;;;;5.43;2.60;;;;;;;;;;5016618;28;20033;-53
2024/01/01 13:10:22;;;;;;;9.45;3.03;;;;;;;;;;5018564;28;20103;-56
2024/01/01 13:12:47;;;;;;;4.03;2.13;;;;;;;;;;5017077;28;20401;-51
2024/01/01 13:15:13;;;;;;;5.03;2.22;;;;;;;;;;5019734;28;20270;-52
2024/01/01 13:17:38;;;;;;;8.95;3.53;;;;;;;;;;5016865;28;20029;-56
2024/01/01 13:20:04;;;;;;;11.43;4.78;;;;;;;;;;5021728;28;20421;-56
2024/01/01 13:22:29;;;;;;;22.77;7.63;;;;;;;;;;5019157;28;20029;-53
2024/01/01 13:24:55;;;;;;;34.20;10.75;;;;;;;;;;5028448;28;20539;-53
2024/01/01 13:27:20;;;;;;;34.30;11.68;;;;;;;;;;5020529;28;20025;-56
2024/01/01 13:29:46;;;;;;;15.85;6.72;;;;;;;;;;5025580;28;20064;-56
2024/01/01 13:32:13;;;;;;;6.00;2.70;;;;;;;;;;5022687;28;20164;-55
2024/01/01 13:34:38;;;;;;;10.07;4.60;;;;;;;;;;5021945;28;20274;-56
2024/01/01 13:37:03;;;;;;;11.02;4.28;;;;;;;;;;5018327;28;21195;-55
2024/01/01 13:39:29;;;;;;;10.20;3.72;;;;;;;;;;5021767;28;20024;-56
2024/01/01 13:41:54;;;;;;;8.63;3.35;;;;;;;;;;5019821;28;20738;-54
2024/01/01 13:44:19;;;;;;;9.25;3.70;;;;;;;;;;5024225;28;20048;-55
2024/01/01 13:46:44;;;;;;;14.55;3.55;;;;;;;;;;5027128;28;20445;-54
2024/01/01 13:49:10;;;;;;;10.27;3.67;;;;;;;;;;5023344;28;20033;-57
2024/01/01 13:51:35;;;;;;;9.30;3.13;;;;;;;;;;5024705;28;20036;-55
2024/01/01 13:54:00;;;;;;;13.07;4.07;;;;;;;;;;5007892;28;20456;-55
2024/01/01 13:56:26;;;;;;;9.38;3.78;;;;;;;;;;5021481;28;20033;-56
2024/01/01 13:58:51;;;;;;;10.23;4.05;;;;;;;;;;5022584;28;20041;-55
2024/01/01 14:01:16;;;;;;;6.03;3.05;;;;;;;;;;5020922;28;20123;-55
2024/01/01 14:03:43;;;;;;;10.50;3.88;;;;;;;;;;5020392;28;20025;-56
2024/01/01 14:06:10;;;;;;;7.68;3.60;;;;;;;;;;5023823;28;20124;-55
2024/01/01 14:08:36;;;;;;;13.05;4.57;;;;;;;;;;5037708;28;20563;-56
2024/01/01 14:11:04;;;;;;;13.52;4.90;;;;;;;;;;5023008;28;20053;-56
2024/01/01 14:13:29;;;;;;;11.40;5.25;;;;;;;;;;5021024;28;20422;-52
2024/01/01 14:15:54;;;;;;;10.27;4.85;;;;;;;;;;5021291;28;20048;-56
2024/01/01 14:18:20;;;;;;;12.20;4.80;;;;;;;;;;5019852;28;20037;-55
2024/01/01 14:20:45;;;;;;;11.45;5.57;;;;;;;;;;5024030;28;20382;-53